sensor_id;sensor_type;location;lat;lon;timestamp;P1;durP1;ratioP1;P2;durP2;ratioP2
20671;SDS011;10495;50.922;4.760;2022-08-21T00:00:43;2.13;;;1.77;;
20671;SDS011;10495;50.922;4.760;2022-08-21T00:03:10;2.97;;;2.30;;
20671;SDS011;10495;50.922;4.760;2022-08-21T00:05:38;2.57;;;2.00;;
20671;SDS011;10495;50.922;4.760;2022-08-21T00:08:08;2.80;;;2.30;;
20671;SDS011;10495;50.922;4.760;2022-08-21T00:10:34;4.83;;;2.30;;
20671;SDS011;10495;50.922;4.760;2022-08-21T00:13:00;3.17;;;2.40;;
20671;SDS011;10495;50.922;4.760;2022-08-21T00:15:28;3.20;;;2.40;;
20671;SDS011;10495;50.922;4.760;2022-08-21T00:17:55;3.10;;;2.20;;
20671;SDS011;10495;50.922;4.760;2022-08-21T00:20:21;6.97;;;2.80;;
20671;SDS011;10495;50.922;4.760;2022-08-21T00:22:47;3.63;;;2.20;;
20671;SDS011;10495;50.922;4.760;2022-08-21T00:25:15;3.23;;;2.43;;
20671;SDS011;10495;50.922;4.760;2022-08-21T00:27:41;3.40;;;2.67;;
20671;SDS011;10495;50.922;4.760;2022-08-21T00:30:08;4.97;;;2.77;;
20671;SDS011;10495;50.922;4.760;2022-08-21T00:32:36;3.40;;;2.43;;
20671;SDS011;10495;50.922;4.760;2022-08-21T00:35:03;2.83;;;2.40;;
20671;SDS011;10495;50.922;4.760;2022-08-21T00:37:31;3.40;;;3.10;;
20671;SDS011;10495;50.922;4.760;2022-08-21T00:39:57;4.10;;;2.70;;
20671;SDS011;10495;50.922;4.760;2022-08-21T00:42:23;2.93;;;2.30;;
20671;SDS011;10495;50.922;4.760;2022-08-21T00:44:48;3.53;;;2.50;;
20671;SDS011;10495;50.922;4.760;2022-08-21T00:47:15;3.47;;;2.57;;
20671;SDS011;10495;50.922;4.760;2022-08-21T00:49:42;4.27;;;2.73;;
20671;SDS011;10495;50.922;4.760;2022-08-21T00:52:11;2.67;;;2.40;;
20671;SDS011;10495;50.922;4.760;2022-08-21T00:54:40;4.40;;;2.33;;
20671;SDS011;10495;50.922;4.760;2022-08-21T00:57:16;4.70;;;2.30;;
20671;SDS011;10495;50.922;4.760;2022-08-21T00:59:45;3.63;;;2.43;;
20671;SDS011;10495;50.922;4.760;2022-08-21T01:02:13;3.73;;;2.73;;
20671;SDS011;10495;50.922;4.760;2022-08-21T01:04:40;4.33;;;2.70;;
20671;SDS011;10495;50.922;4.760;2022-08-21T01:07:06;4.07;;;2.47;;
20671;SDS011;10495;50.922;4.760;2022-08-21T01:09:32;3.73;;;2.83;;
20671;SDS011;10495;50.922;4.760;2022-08-21T01:11:59;6.57;;;2.80;;
20671;SDS011;10495;50.922;4.760;2022-08-21T01:14:25;4.07;;;2.50;;
20671;SDS011;10495;50.922;4.760;2022-08-21T01:16:51;4.80;;;2.50;;
20671;SDS011;10495;50.922;4.760;2022-08-21T01:19:18;2.60;;;2.23;;
20671;SDS011;10495;50.922;4.760;2022-08-21T01:21:46;3.30;;;2.57;;
20671;SDS011;10495;50.922;4.760;2022-08-21T01:24:11;2.87;;;2.50;;
20671;SDS011;10495;50.922;4.760;2022-08-21T01:26:38;2.47;;;2.27;;
20671;SDS011;10495;50.922;4.760;2022-08-21T01:29:09;6.60;;;2.17;;
20671;SDS011;10495;50.922;4.760;2022-08-21T01:31:37;3.70;;;2.60;;
20671;SDS011;10495;50.922;4.760;2022-08-21T01:34:03;3.73;;;2.50;;
20671;SDS011;10495;50.922;4.760;2022-08-21T01:36:29;4.33;;;2.23;;
20671;SDS011;10495;50.922;4.760;2022-08-21T01:38:55;4.87;;;2.77;;
20671;SDS011;10495;50.922;4.760;2022-08-21T01:41:21;3.23;;;2.40;;
20671;SDS011;10495;50.922;4.760;2022-08-21T01:43:47;3.37;;;2.30;;
20671;SDS011;10495;50.922;4.760;2022-08-21T01:46:13;2.40;;;2.20;;
20671;SDS011;10495;50.922;4.760;2022-08-21T01:48:39;3.27;;;2.40;;
20671;SDS011;10495;50.922;4.760;2022-08-21T01:51:05;2.90;;;2.30;;
20671;SDS011;10495;50.922;4.760;2022-08-21T01:53:32;2.40;;;2.20;;
20671;SDS011;10495;50.922;4.760;2022-08-21T01:56:00;3.00;;;2.37;;
20671;SDS011;10495;50.922;4.760;2022-08-21T01:58:27;3.73;;;2.43;;
20671;SDS011;10495;50.922;4.760;2022-08-21T02:00:52;3.83;;;2.83;;
20671;SDS011;10495;50.922;4.760;2022-08-21T02:03:19;4.73;;;3.07;;
20671;SDS011;10495;50.922;4.760;2022-08-21T02:05:45;3.77;;;2.53;;
20671;SDS011;10495;50.922;4.760;2022-08-21T02:08:11;4.83;;;2.57;;
20671;SDS011;10495;50.922;4.760;2022-08-21T02:10:37;5.47;;;3.23;;
20671;SDS011;10495;50.922;4.760;2022-08-21T02:13:03;3.87;;;2.47;;
20671;SDS011;10495;50.922;4.760;2022-08-21T02:15:29;2.97;;;2.27;;
20671;SDS011;10495;50.922;4.760;2022-08-21T02:17:57;3.47;;;2.47;;
20671;SDS011;10495;50.922;4.760;2022-08-21T02:20:26;4.30;;;2.27;;
20671;SDS011;10495;50.922;4.760;2022-08-21T02:22:54;4.47;;;2.47;;
20671;SDS011;10495;50.922;4.760;2022-08-21T02:25:20;3.57;;;2.50;;
20671;SDS011;10495;50.922;4.760;2022-08-21T02:27:47;4.40;;;2.40;;
20671;SDS011;10495;50.922;4.760;2022-08-21T02:30:18;2.87;;;2.53;;
20671;SDS011;10495;50.922;4.760;2022-08-21T02:32:46;3.00;;;2.30;;
20671;SDS011;10495;50.922;4.760;2022-08-21T02:35:12;7.50;;;2.37;;
20671;SDS011;10495;50.922;4.760;2022-08-21T02:37:42;3.47;;;2.73;;
20671;SDS011;10495;50.922;4.760;2022-08-21T02:40:10;4.17;;;3.03;;
20671;SDS011;10495;50.922;4.760;2022-08-21T02:42:36;3.67;;;2.53;;
20671;SDS011;10495;50.922;4.760;2022-08-21T02:45:03;3.60;;;2.80;;
20671;SDS011;10495;50.922;4.760;2022-08-21T02:47:29;3.37;;;3.00;;
20671;SDS011;10495;50.922;4.760;2022-08-21T02:49:55;3.17;;;2.17;;
20671;SDS011;10495;50.922;4.760;2022-08-21T02:52:21;4.20;;;2.73;;
20671;SDS011;10495;50.922;4.760;2022-08-21T02:54:47;4.43;;;2.70;;
20671;SDS011;10495;50.922;4.760;2022-08-21T02:57:12;2.87;;;2.47;;
20671;SDS011;10495;50.922;4.760;2022-08-21T02:59:38;2.90;;;2.27;;
20671;SDS011;10495;50.922;4.760;2022-08-21T03:02:05;5.50;;;2.93;;
20671;SDS011;10495;50.922;4.760;2022-08-21T03:04:31;3.87;;;2.13;;
20671;SDS011;10495;50.922;4.760;2022-08-21T03:06:56;4.23;;;2.70;;
20671;SDS011;10495;50.922;4.760;2022-08-21T03:09:22;3.23;;;2.43;;
20671;SDS011;10495;50.922;4.760;2022-08-21T03:11:49;4.20;;;2.80;;
20671;SDS011;10495;50.922;4.760;2022-08-21T03:14:16;4.03;;;2.30;;
20671;SDS011;10495;50.922;4.760;2022-08-21T03:16:42;5.60;;;2.83;;
20671;SDS011;10495;50.922;4.760;2022-08-21T03:19:07;4.47;;;2.40;;
20671;SDS011;10495;50.922;4.760;2022-08-21T03:21:33;5.27;;;2.90;;
20671;SDS011;10495;50.922;4.760;2022-08-21T03:23:58;4.03;;;2.27;;
20671;SDS011;10495;50.922;4.760;2022-08-21T03:26:24;3.00;;;2.50;;
20671;SDS011;10495;50.922;4.760;2022-08-21T03:28:50;3.77;;;2.63;;
20671;SDS011;10495;50.922;4.760;2022-08-21T03:31:16;2.90;;;2.30;;
20671;SDS011;10495;50.922;4.760;2022-08-21T03:33:42;4.90;;;2.33;;
20671;SDS011;10495;50.922;4.760;2022-08-21T03:36:08;4.57;;;2.63;;
20671;SDS011;10495;50.922;4.760;2022-08-21T03:38:35;6.20;;;2.67;;
20671;SDS011;10495;50.922;4.760;2022-08-21T03:41:02;6.87;;;2.57;;
20671;SDS011;10495;50.922;4.760;2022-08-21T03:43:29;4.60;;;2.60;;
20671;SDS011;10495;50.922;4.760;2022-08-21T03:45:54;3.17;;;2.37;;
20671;SDS011;10495;50.922;4.760;2022-08-21T03:48:20;3.63;;;2.00;;
20671;SDS011;10495;50.922;4.760;2022-08-21T03:50:46;7.03;;;2.67;;
20671;SDS011;10495;50.922;4.760;2022-08-21T03:53:14;9.03;;;2.83;;
20671;SDS011;10495;50.922;4.760;2022-08-21T03:55:41;6.90;;;2.80;;
20671;SDS011;10495;50.922;4.760;2022-08-21T03:58:07;5.20;;;2.23;;
20671;SDS011;10495;50.922;4.760;2022-08-21T04:00:32;5.70;;;2.50;;
20671;SDS011;10495;50.922;4.760;2022-08-21T04:02:58;5.63;;;2.40;;
20671;SDS011;10495;50.922;4.760;2022-08-21T04:05:25;3.63;;;2.30;;
20671;SDS011;10495;50.922;4.760;2022-08-21T04:07:58;4.57;;;2.63;;
20671;SDS011;10495;50.922;4.760;2022-08-21T04:10:27;5.97;;;2.47;;
20671;SDS011;10495;50.922;4.760;2022-08-21T04:12:55;3.17;;;2.40;;
20671;SDS011;10495;50.922;4.760;2022-08-21T04:15:21;2.47;;;2.27;;
20671;SDS011;10495;50.922;4.760;2022-08-21T04:17:47;3.73;;;2.50;;
20671;SDS011;10495;50.922;4.760;2022-08-21T04:20:13;3.87;;;2.40;;
20671;SDS011;10495;50.922;4.760;2022-08-21T04:22:40;5.47;;;2.67;;
20671;SDS011;10495;50.922;4.760;2022-08-21T04:25:06;5.13;;;2.90;;
20671;SDS011;10495;50.922;4.760;2022-08-21T04:27:32;4.13;;;2.23;;
20671;SDS011;10495;50.922;4.760;2022-08-21T04:29:58;3.57;;;2.60;;
20671;SDS011;10495;50.922;4.760;2022-08-21T04:32:25;6.07;;;2.40;;
20671;SDS011;10495;50.922;4.760;2022-08-21T04:35:02;6.20;;;2.40;;
20671;SDS011;10495;50.922;4.760;2022-08-21T04:37:30;5.10;;;2.57;;
20671;SDS011;10495;50.922;4.760;2022-08-21T04:39:56;4.17;;;2.20;;
20671;SDS011;10495;50.922;4.760;2022-08-21T04:42:23;3.77;;;2.30;;
20671;SDS011;10495;50.922;4.760;2022-08-21T04:44:50;5.47;;;2.37;;
20671;SDS011;10495;50.922;4.760;2022-08-21T04:47:16;2.40;;;2.17;;
20671;SDS011;10495;50.922;4.760;2022-08-21T04:49:43;3.70;;;2.33;;
20671;SDS011;10495;50.922;4.760;2022-08-21T04:52:08;5.20;;;2.70;;
20671;SDS011;10495;50.922;4.760;2022-08-21T04:54:35;7.13;;;2.70;;
20671;SDS011;10495;50.922;4.760;2022-08-21T04:57:02;4.50;;;2.40;;
20671;SDS011;10495;50.922;4.760;2022-08-21T04:59:43;5.47;;;2.27;;
20671;SDS011;10495;50.922;4.760;2022-08-21T05:02:14;3.63;;;2.20;;
20671;SDS011;10495;50.922;4.760;2022-08-21T05:04:42;4.17;;;2.33;;
20671;SDS011;10495;50.922;4.760;2022-08-21T05:07:10;4.67;;;2.70;;
20671;SDS011;10495;50.922;4.760;2022-08-21T05:09:39;4.43;;;2.57;;
20671;SDS011;10495;50.922;4.760;2022-08-21T05:12:04;6.40;;;2.67;;
20671;SDS011;10495;50.922;4.760;2022-08-21T05:14:30;2.57;;;2.30;;
20671;SDS011;10495;50.922;4.760;2022-08-21T05:16:56;9.40;;;3.07;;
20671;SDS011;10495;50.922;4.760;2022-08-21T05:19:21;6.10;;;2.00;;
20671;SDS011;10495;50.922;4.760;2022-08-21T05:21:48;3.33;;;2.63;;
20671;SDS011;10495;50.922;4.760;2022-08-21T05:24:14;7.83;;;2.73;;
20671;SDS011;10495;50.922;4.760;2022-08-21T05:26:43;4.27;;;2.20;;
20671;SDS011;10495;50.922;4.760;2022-08-21T05:29:09;7.90;;;2.67;;
20671;SDS011;10495;50.922;4.760;2022-08-21T05:31:36;4.40;;;2.60;;
20671;SDS011;10495;50.922;4.760;2022-08-21T05:34:02;7.93;;;3.17;;
20671;SDS011;10495;50.922;4.760;2022-08-21T05:36:28;6.10;;;2.70;;
20671;SDS011;10495;50.922;4.760;2022-08-21T05:38:54;5.87;;;2.30;;
20671;SDS011;10495;50.922;4.760;2022-08-21T05:41:19;4.47;;;2.50;;
20671;SDS011;10495;50.922;4.760;2022-08-21T05:43:45;5.40;;;2.63;;
20671;SDS011;10495;50.922;4.760;2022-08-21T05:46:11;5.57;;;2.30;;
20671;SDS011;10495;50.922;4.760;2022-08-21T05:48:36;5.63;;;2.30;;
20671;SDS011;10495;50.922;4.760;2022-08-21T05:51:06;4.00;;;2.27;;
20671;SDS011;10495;50.922;4.760;2022-08-21T05:53:34;4.83;;;2.00;;
20671;SDS011;10495;50.922;4.760;2022-08-21T05:56:00;4.30;;;2.17;;
20671;SDS011;10495;50.922;4.760;2022-08-21T05:58:28;3.83;;;1.97;;
20671;SDS011;10495;50.922;4.760;2022-08-21T06:00:56;5.27;;;2.10;;
20671;SDS011;10495;50.922;4.760;2022-08-21T06:03:23;7.47;;;2.30;;
20671;SDS011;10495;50.922;4.760;2022-08-21T06:05:51;3.93;;;2.10;;
20671;SDS011;10495;50.922;4.760;2022-08-21T06:08:17;4.70;;;2.17;;
20671;SDS011;10495;50.922;4.760;2022-08-21T06:10:44;6.13;;;2.13;;
20671;SDS011;10495;50.922;4.760;2022-08-21T06:13:11;4.80;;;2.20;;
20671;SDS011;10495;50.922;4.760;2022-08-21T06:15:37;2.80;;;2.00;;
20671;SDS011;10495;50.922;4.760;2022-08-21T06:18:03;3.43;;;1.90;;
20671;SDS011;10495;50.922;4.760;2022-08-21T06:20:29;6.23;;;2.37;;
20671;SDS011;10495;50.922;4.760;2022-08-21T06:22:54;6.13;;;2.10;;
20671;SDS011;10495;50.922;4.760;2022-08-21T06:25:20;4.40;;;2.00;;
20671;SDS011;10495;50.922;4.760;2022-08-21T06:27:46;3.28;;;1.88;;
20671;SDS011;10495;50.922;4.760;2022-08-21T06:30:11;4.63;;;2.30;;
20671;SDS011;10495;50.922;4.760;2022-08-21T06:32:38;3.97;;;2.05;;
20671;SDS011;10495;50.922;4.760;2022-08-21T06:35:03;4.70;;;1.73;;
20671;SDS011;10495;50.922;4.760;2022-08-21T06:37:30;4.00;;;1.90;;
20671;SDS011;10495;50.922;4.760;2022-08-21T06:39:56;6.82;;;2.13;;
20671;SDS011;10495;50.922;4.760;2022-08-21T06:42:21;3.85;;;1.70;;
20671;SDS011;10495;50.922;4.760;2022-08-21T06:44:47;4.13;;;1.80;;
20671;SDS011;10495;50.922;4.760;2022-08-21T06:47:13;5.13;;;1.75;;
20671;SDS011;10495;50.922;4.760;2022-08-21T06:49:39;4.70;;;1.90;;
20671;SDS011;10495;50.922;4.760;2022-08-21T06:52:08;5.45;;;2.17;;
20671;SDS011;10495;50.922;4.760;2022-08-21T06:54:35;6.55;;;1.92;;
20671;SDS011;10495;50.922;4.760;2022-08-21T06:57:01;3.35;;;1.77;;
20671;SDS011;10495;50.922;4.760;2022-08-21T06:59:26;6.00;;;1.75;;
20671;SDS011;10495;50.922;4.760;2022-08-21T07:01:52;5.32;;;1.65;;
20671;SDS011;10495;50.922;4.760;2022-08-21T07:04:17;3.28;;;1.92;;
20671;SDS011;10495;50.922;4.760;2022-08-21T07:06:44;7.97;;;1.98;;
20671;SDS011;10495;50.922;4.760;2022-08-21T07:09:10;5.07;;;1.95;;
20671;SDS011;10495;50.922;4.760;2022-08-21T07:11:36;4.53;;;1.58;;
20671;SDS011;10495;50.922;4.760;2022-08-21T07:14:02;2.42;;;1.73;;
20671;SDS011;10495;50.922;4.760;2022-08-21T07:16:28;6.57;;;1.70;;
20671;SDS011;10495;50.922;4.760;2022-08-21T07:18:54;6.10;;;1.70;;
20671;SDS011;10495;50.922;4.760;2022-08-21T07:21:19;5.47;;;2.10;;
20671;SDS011;10495;50.922;4.760;2022-08-21T07:23:47;4.57;;;2.50;;
20671;SDS011;10495;50.922;4.760;2022-08-21T07:26:15;6.25;;;1.80;;
20671;SDS011;10495;50.922;4.760;2022-08-21T07:28:43;3.22;;;1.60;;
20671;SDS011;10495;50.922;4.760;2022-08-21T07:31:09;9.45;;;1.70;;
20671;SDS011;10495;50.922;4.760;2022-08-21T07:33:39;3.58;;;1.50;;
20671;SDS011;10495;50.922;4.760;2022-08-21T07:36:05;3.60;;;1.60;;
20671;SDS011;10495;50.922;4.760;2022-08-21T07:38:32;6.28;;;1.60;;
20671;SDS011;10495;50.922;4.760;2022-08-21T07:40:57;5.22;;;1.92;;
20671;SDS011;10495;50.922;4.760;2022-08-21T07:43:26;7.55;;;2.72;;
20671;SDS011;10495;50.922;4.760;2022-08-21T07:45:52;4.65;;;1.85;;
20671;SDS011;10495;50.922;4.760;2022-08-21T07:48:22;4.57;;;1.63;;
20671;SDS011;10495;50.922;4.760;2022-08-21T07:50:48;3.95;;;1.40;;
20671;SDS011;10495;50.922;4.760;2022-08-21T07:53:14;6.65;;;1.60;;
20671;SDS011;10495;50.922;4.760;2022-08-21T07:55:40;5.82;;;2.00;;
20671;SDS011;10495;50.922;4.760;2022-08-21T07:58:06;6.07;;;2.10;;
20671;SDS011;10495;50.922;4.760;2022-08-21T08:00:31;2.80;;;1.65;;
20671;SDS011;10495;50.922;4.760;2022-08-21T08:02:57;4.45;;;1.52;;
20671;SDS011;10495;50.922;4.760;2022-08-21T08:05:25;6.97;;;1.67;;
20671;SDS011;10495;50.922;4.760;2022-08-21T08:07:54;5.50;;;1.98;;
20671;SDS011;10495;50.922;4.760;2022-08-21T08:10:20;5.32;;;1.50;;
20671;SDS011;10495;50.922;4.760;2022-08-21T08:12:47;2.88;;;1.08;;
20671;SDS011;10495;50.922;4.760;2022-08-21T08:15:18;2.67;;;1.42;;
20671;SDS011;10495;50.922;4.760;2022-08-21T08:17:45;4.68;;;2.38;;
20671;SDS011;10495;50.922;4.760;2022-08-21T08:20:12;3.58;;;1.33;;
20671;SDS011;10495;50.922;4.760;2022-08-21T08:22:39;2.80;;;1.35;;
20671;SDS011;10495;50.922;4.760;2022-08-21T08:25:07;3.72;;;1.42;;
20671;SDS011;10495;50.922;4.760;2022-08-21T08:27:34;3.90;;;1.25;;
20671;SDS011;10495;50.922;4.760;2022-08-21T08:29:59;2.75;;;1.30;;
20671;SDS011;10495;50.922;4.760;2022-08-21T08:32:25;4.60;;;1.10;;
20671;SDS011;10495;50.922;4.760;2022-08-21T08:34:51;6.20;;;1.50;;
20671;SDS011;10495;50.922;4.760;2022-08-21T08:37:17;4.18;;;1.40;;
20671;SDS011;10495;50.922;4.760;2022-08-21T08:39:44;3.58;;;1.40;;
20671;SDS011;10495;50.922;4.760;2022-08-21T08:42:43;6.80;;;2.08;;
20671;SDS011;10495;50.922;4.760;2022-08-21T08:47:37;6.25;;;1.70;;
20671;SDS011;10495;50.922;4.760;2022-08-21T08:50:41;3.70;;;1.48;;
20671;SDS011;10495;50.922;4.760;2022-08-21T08:53:12;4.45;;;1.52;;
20671;SDS011;10495;50.922;4.760;2022-08-21T08:55:45;3.88;;;1.65;;
20671;SDS011;10495;50.922;4.760;2022-08-21T08:58:25;9.00;;;2.00;;
20671;SDS011;10495;50.922;4.760;2022-08-21T09:00:55;4.38;;;1.73;;
20671;SDS011;10495;50.922;4.760;2022-08-21T09:03:22;4.20;;;1.45;;
20671;SDS011;10495;50.922;4.760;2022-08-21T09:06:12;5.63;;;1.67;;
20671;SDS011;10495;50.922;4.760;2022-08-21T09:09:06;3.13;;;1.20;;
20671;SDS011;10495;50.922;4.760;2022-08-21T09:22:54;6.05;;;1.90;;
20671;SDS011;10495;50.922;4.760;2022-08-21T09:25:34;6.15;;;1.67;;
20671;SDS011;10495;50.922;4.760;2022-08-21T09:28:20;5.97;;;2.00;;
20671;SDS011;10495;50.922;4.760;2022-08-21T09:30:46;5.20;;;1.80;;
20671;SDS011;10495;50.922;4.760;2022-08-21T09:33:12;4.50;;;1.58;;
20671;SDS011;10495;50.922;4.760;2022-08-21T09:35:47;4.65;;;1.75;;
20671;SDS011;10495;50.922;4.760;2022-08-21T09:38:25;4.68;;;1.60;;
20671;SDS011;10495;50.922;4.760;2022-08-21T09:40:55;6.00;;;1.63;;
20671;SDS011;10495;50.922;4.760;2022-08-21T09:43:30;4.88;;;1.55;;
20671;SDS011;10495;50.922;4.760;2022-08-21T09:46:19;4.70;;;1.70;;
20671;SDS011;10495;50.922;4.760;2022-08-21T09:48:49;2.90;;;1.60;;
20671;SDS011;10495;50.922;4.760;2022-08-21T09:51:20;5.03;;;1.50;;
20671;SDS011;10495;50.922;4.760;2022-08-21T09:53:53;5.18;;;1.60;;
20671;SDS011;10495;50.922;4.760;2022-08-21T09:56:27;3.08;;;1.50;;
20671;SDS011;10495;50.922;4.760;2022-08-21T09:59:18;3.38;;;1.58;;
20671;SDS011;10495;50.922;4.760;2022-08-21T10:01:47;3.85;;;1.30;;
20671;SDS011;10495;50.922;4.760;2022-08-21T10:04:14;2.55;;;1.48;;
20671;SDS011;10495;50.922;4.760;2022-08-21T10:06:44;7.57;;;1.75;;
20671;SDS011;10495;50.922;4.760;2022-08-21T10:09:14;5.57;;;1.60;;
20671;SDS011;10495;50.922;4.760;2022-08-21T10:11:43;3.08;;;1.30;;
20671;SDS011;10495;50.922;4.760;2022-08-21T10:14:50;4.95;;;2.00;;
20671;SDS011;10495;50.922;4.760;2022-08-21T10:25:44;7.47;;;1.90;;
20671;SDS011;10495;50.922;4.760;2022-08-21T10:38:42;4.50;;;1.85;;
20671;SDS011;10495;50.922;4.760;2022-08-21T10:44:12;4.82;;;1.70;;
20671;SDS011;10495;50.922;4.760;2022-08-21T10:52:17;5.55;;;2.10;;
20671;SDS011;10495;50.922;4.760;2022-08-21T11:00:14;7.82;;;1.85;;
20671;SDS011;10495;50.922;4.760;2022-08-21T11:02:49;6.55;;;2.10;;
20671;SDS011;10495;50.922;4.760;2022-08-21T11:05:38;8.18;;;2.08;;
20671;SDS011;10495;50.922;4.760;2022-08-21T11:10:39;6.20;;;1.98;;
20671;SDS011;10495;50.922;4.760;2022-08-21T11:16:02;5.97;;;1.85;;
20671;SDS011;10495;50.922;4.760;2022-08-21T11:19:28;4.70;;;1.80;;
20671;SDS011;10495;50.922;4.760;2022-08-21T11:29:55;6.43;;;2.30;;
20671;SDS011;10495;50.922;4.760;2022-08-21T11:35:44;3.78;;;1.50;;
20671;SDS011;10495;50.922;4.760;2022-08-21T11:41:19;5.90;;;2.20;;
20671;SDS011;10495;50.922;4.760;2022-08-21T11:47:10;4.20;;;1.85;;
20671;SDS011;10495;50.922;4.760;2022-08-21T11:52:44;5.07;;;2.22;;
20671;SDS011;10495;50.922;4.760;2022-08-21T11:55:22;5.50;;;1.73;;
20671;SDS011;10495;50.922;4.760;2022-08-21T11:57:56;6.15;;;3.10;;
20671;SDS011;10495;50.922;4.760;2022-08-21T12:00:27;3.25;;;1.63;;
20671;SDS011;10495;50.922;4.760;2022-08-21T12:02:58;8.52;;;2.97;;
20671;SDS011;10495;50.922;4.760;2022-08-21T12:05:40;7.95;;;2.13;;
20671;SDS011;10495;50.922;4.760;2022-08-21T12:08:26;7.60;;;2.22;;
20671;SDS011;10495;50.922;4.760;2022-08-21T12:13:37;6.50;;;2.05;;
20671;SDS011;10495;50.922;4.760;2022-08-21T12:18:36;5.43;;;1.85;;
20671;SDS011;10495;50.922;4.760;2022-08-21T12:21:16;5.68;;;2.58;;
20671;SDS011;10495;50.922;4.760;2022-08-21T12:23:48;6.97;;;2.50;;
20671;SDS011;10495;50.922;4.760;2022-08-21T12:26:33;6.78;;;2.03;;
20671;SDS011;10495;50.922;4.760;2022-08-21T12:29:12;5.75;;;2.10;;
20671;SDS011;10495;50.922;4.760;2022-08-21T12:32:30;5.88;;;1.85;;
20671;SDS011;10495;50.922;4.760;2022-08-21T12:34:50;3.83;;;1.70;;
20671;SDS011;10495;50.922;4.760;2022-08-21T12:37:22;6.18;;;2.78;;
20671;SDS011;10495;50.922;4.760;2022-08-21T12:39:54;5.78;;;1.70;;
20671;SDS011;10495;50.922;4.760;2022-08-21T12:42:24;5.53;;;1.98;;
20671;SDS011;10495;50.922;4.760;2022-08-21T12:45:00;4.18;;;1.90;;
20671;SDS011;10495;50.922;4.760;2022-08-21T12:47:34;5.45;;;1.80;;
20671;SDS011;10495;50.922;4.760;2022-08-21T12:50:19;4.95;;;2.03;;
20671;SDS011;10495;50.922;4.760;2022-08-21T12:52:58;11.82;;;2.15;;
20671;SDS011;10495;50.922;4.760;2022-08-21T12:55:30;5.15;;;2.38;;
20671;SDS011;10495;50.922;4.760;2022-08-21T12:57:58;3.30;;;1.50;;
20671;SDS011;10495;50.922;4.760;2022-08-21T13:00:25;5.82;;;1.77;;
20671;SDS011;10495;50.922;4.760;2022-08-21T13:02:52;6.65;;;2.10;;
20671;SDS011;10495;50.922;4.760;2022-08-21T13:05:40;6.22;;;1.70;;
20671;SDS011;10495;50.922;4.760;2022-08-21T13:08:06;2.70;;;1.45;;
20671;SDS011;10495;50.922;4.760;2022-08-21T13:10:34;10.93;;;1.98;;
20671;SDS011;10495;50.922;4.760;2022-08-21T13:13:02;4.13;;;1.70;;
20671;SDS011;10495;50.922;4.760;2022-08-21T13:15:33;5.18;;;1.98;;
20671;SDS011;10495;50.922;4.760;2022-08-21T13:18:01;4.65;;;1.70;;
20671;SDS011;10495;50.922;4.760;2022-08-21T13:20:29;4.28;;;1.98;;
20671;SDS011;10495;50.922;4.760;2022-08-21T13:22:55;4.93;;;2.30;;
20671;SDS011;10495;50.922;4.760;2022-08-21T13:25:24;2.63;;;1.55;;
20671;SDS011;10495;50.922;4.760;2022-08-21T13:30:30;6.20;;;1.88;;
20671;SDS011;10495;50.922;4.760;2022-08-21T13:32:58;6.28;;;2.00;;
20671;SDS011;10495;50.922;4.760;2022-08-21T13:35:28;8.07;;;1.95;;
20671;SDS011;10495;50.922;4.760;2022-08-21T13:38:13;3.03;;;1.80;;
20671;SDS011;10495;50.922;4.760;2022-08-21T13:40:43;5.47;;;1.83;;
20671;SDS011;10495;50.922;4.760;2022-08-21T13:43:13;4.68;;;1.65;;
20671;SDS011;10495;50.922;4.760;2022-08-21T13:45:52;4.55;;;1.83;;
20671;SDS011;10495;50.922;4.760;2022-08-21T13:48:19;6.35;;;1.80;;
20671;SDS011;10495;50.922;4.760;2022-08-21T13:50:46;4.70;;;1.90;;
20671;SDS011;10495;50.922;4.760;2022-08-21T13:53:20;5.72;;;1.88;;
20671;SDS011;10495;50.922;4.760;2022-08-21T13:55:46;4.28;;;1.83;;
20671;SDS011;10495;50.922;4.760;2022-08-21T13:58:12;4.30;;;1.60;;
20671;SDS011;10495;50.922;4.760;2022-08-21T14:00:50;5.22;;;1.77;;
20671;SDS011;10495;50.922;4.760;2022-08-21T14:03:25;6.28;;;1.92;;
20671;SDS011;10495;50.922;4.760;2022-08-21T14:05:56;6.00;;;2.05;;
20671;SDS011;10495;50.922;4.760;2022-08-21T14:08:27;4.13;;;1.60;;
20671;SDS011;10495;50.922;4.760;2022-08-21T14:10:57;6.13;;;2.15;;
20671;SDS011;10495;50.922;4.760;2022-08-21T14:16:03;3.17;;;1.55;;
20671;SDS011;10495;50.922;4.760;2022-08-21T14:18:43;3.92;;;1.60;;
20671;SDS011;10495;50.922;4.760;2022-08-21T14:21:22;6.40;;;1.88;;
20671;SDS011;10495;50.922;4.760;2022-08-21T14:24:02;4.40;;;1.85;;
20671;SDS011;10495;50.922;4.760;2022-08-21T14:26:42;3.83;;;1.98;;
20671;SDS011;10495;50.922;4.760;2022-08-21T14:29:15;6.22;;;2.10;;
20671;SDS011;10495;50.922;4.760;2022-08-21T14:31:42;6.32;;;2.03;;
20671;SDS011;10495;50.922;4.760;2022-08-21T14:34:10;3.40;;;1.55;;
20671;SDS011;10495;50.922;4.760;2022-08-21T14:36:37;5.55;;;1.77;;
20671;SDS011;10495;50.922;4.760;2022-08-21T14:39:02;7.30;;;2.08;;
20671;SDS011;10495;50.922;4.760;2022-08-21T14:41:28;6.80;;;2.47;;
20671;SDS011;10495;50.922;4.760;2022-08-21T14:43:54;4.20;;;2.08;;
20671;SDS011;10495;50.922;4.760;2022-08-21T14:46:23;4.45;;;1.88;;
20671;SDS011;10495;50.922;4.760;2022-08-21T14:48:51;5.35;;;2.00;;
20671;SDS011;10495;50.922;4.760;2022-08-21T14:51:17;5.80;;;1.73;;
20671;SDS011;10495;50.922;4.760;2022-08-21T14:53:43;7.00;;;1.77;;
20671;SDS011;10495;50.922;4.760;2022-08-21T14:56:09;5.60;;;1.92;;
20671;SDS011;10495;50.922;4.760;2022-08-21T14:58:39;3.60;;;1.63;;
20671;SDS011;10495;50.922;4.760;2022-08-21T15:01:07;5.05;;;1.45;;
20671;SDS011;10495;50.922;4.760;2022-08-21T15:03:34;5.07;;;1.63;;
20671;SDS011;10495;50.922;4.760;2022-08-21T15:06:01;5.25;;;2.00;;
20671;SDS011;10495;50.922;4.760;2022-08-21T15:08:28;6.35;;;2.25;;
20671;SDS011;10495;50.922;4.760;2022-08-21T15:10:53;4.50;;;1.92;;
20671;SDS011;10495;50.922;4.760;2022-08-21T15:13:19;4.72;;;2.05;;
20671;SDS011;10495;50.922;4.760;2022-08-21T15:15:47;6.22;;;1.90;;
20671;SDS011;10495;50.922;4.760;2022-08-21T15:18:15;5.47;;;2.45;;
20671;SDS011;10495;50.922;4.760;2022-08-21T15:20:41;8.48;;;1.98;;
20671;SDS011;10495;50.922;4.760;2022-08-21T15:23:07;4.43;;;1.40;;
20671;SDS011;10495;50.922;4.760;2022-08-21T15:25:33;5.38;;;2.00;;
20671;SDS011;10495;50.922;4.760;2022-08-21T15:28:00;9.00;;;2.65;;
20671;SDS011;10495;50.922;4.760;2022-08-21T15:30:26;6.57;;;2.70;;
20671;SDS011;10495;50.922;4.760;2022-08-21T15:32:55;7.43;;;3.45;;
20671;SDS011;10495;50.922;4.760;2022-08-21T15:35:20;4.45;;;2.90;;
20671;SDS011;10495;50.922;4.760;2022-08-21T15:37:46;5.78;;;2.70;;
20671;SDS011;10495;50.922;4.760;2022-08-21T15:40:12;7.63;;;3.53;;
20671;SDS011;10495;50.922;4.760;2022-08-21T15:42:39;4.90;;;2.33;;
20671;SDS011;10495;50.922;4.760;2022-08-21T15:45:06;6.47;;;2.05;;
20671;SDS011;10495;50.922;4.760;2022-08-21T15:47:33;3.33;;;1.50;;
20671;SDS011;10495;50.922;4.760;2022-08-21T15:50:00;4.38;;;1.77;;
20671;SDS011;10495;50.922;4.760;2022-08-21T15:52:27;3.55;;;2.03;;
20671;SDS011;10495;50.922;4.760;2022-08-21T15:54:53;3.63;;;1.90;;
20671;SDS011;10495;50.922;4.760;2022-08-21T15:57:20;4.05;;;1.60;;
20671;SDS011;10495;50.922;4.760;2022-08-21T15:59:49;2.15;;;1.33;;
20671;SDS011;10495;50.922;4.760;2022-08-21T16:02:17;5.43;;;2.10;;
20671;SDS011;10495;50.922;4.760;2022-08-21T16:04:46;4.25;;;1.70;;
20671;SDS011;10495;50.922;4.760;2022-08-21T16:07:12;4.88;;;2.00;;
20671;SDS011;10495;50.922;4.760;2022-08-21T16:09:38;7.00;;;2.42;;
20671;SDS011;10495;50.922;4.760;2022-08-21T16:12:04;4.65;;;1.70;;
20671;SDS011;10495;50.922;4.760;2022-08-21T16:14:31;4.43;;;1.60;;
20671;SDS011;10495;50.922;4.760;2022-08-21T16:16:59;5.30;;;1.67;;
20671;SDS011;10495;50.922;4.760;2022-08-21T16:19:25;5.32;;;2.10;;
20671;SDS011;10495;50.922;4.760;2022-08-21T16:21:53;3.13;;;1.85;;